Time;durP1;ratioP1;P1;durP2;ratioP2;P2;SDS_P1;SDS_P2;PMS_P1;PMS_P2;Temp;Humidity;BMP_temperature;BMP_pressure;BME280_temperature;BME280_humidity;BME280_pressure;Samples;Min_cycle;Max_cycle;Signal;HPM_P1;HPM_P2
2023/08/18 00:01:24;;;;;;;0.40;0.10;;;16.00;36.20;;;;;;5052977;28;20048;-88
2023/08/18 00:03:50;;;;;;;0.75;0.47;;;16.00;92.00;;;;;;5052828;28;20106;-89
2023/08/18 00:06:15;;;;;;;0.00;0.00;;;16.00;99.80;;;;;;5052690;28;20124;-88
2023/08/18 00:08:42;;;;;;;0.52;0.40;;;16.00;99.90;;;;;;5051173;28;20056;-88
2023/08/18 00:11:09;;;;;;;0.17;0.10;;;16.00;99.90;;;;;;5051535;28;20474;-88
2023/08/18 00:13:34;;;;;;;0.28;0.25;;;16.30;99.90;;;;;;5051126;28;20095;-88
2023/08/18 00:16:00;;;;;;;0.00;0.00;;;16.10;99.90;;;;;;5052852;28;20073;-88
2023/08/18 00:18:26;;;;;;;0.68;0.47;;;16.00;99.90;;;;;;5051365;28;20049;-88
2023/08/18 00:20:52;;;;;;;0.38;0.20;;;16.10;99.90;;;;;;5052837;28;20055;-88
2023/08/18 00:23:18;;;;;;;0.10;0.10;;;16.10;99.90;;;;;;5033956;28;20130;-88
2023/08/18 00:25:44;;;;;;;0.03;0.03;;;16.10;99.90;;;;;;5034818;28;20052;-88
2023/08/18 00:28:10;;;;;;;0.00;0.00;;;16.10;99.90;;;;;;5052538;28;20041;-88
2023/08/18 00:30:36;;;;;;;0.05;0.00;;;16.10;99.90;;;;;;5051880;28;20051;-88
2023/08/18 00:33:02;;;;;;;0.20;0.20;;;16.10;99.90;;;;;;5051451;28;20470;-88
2023/08/18 00:35:28;;;;;;;0.00;0.00;;;16.10;99.90;;;;;;5049112;28;20045;-88
2023/08/18 00:37:53;;;;;;;1.17;0.75;;;16.10;99.90;;;;;;5051622;28;20067;-88
2023/08/18 00:40:22;;;;;;;0.10;0.00;;;17.10;99.90;;;;;;5051520;28;20060;-88
2023/08/18 00:42:48;;;;;;;0.40;0.20;;;17.10;99.90;;;;;;5053922;28;20049;-88
2023/08/18 00:45:13;;;;;;;1.85;1.20;;;17.20;99.90;;;;;;5052842;28;20199;-88
2023/08/18 00:47:39;;;;;;;0.20;0.17;;;16.10;99.90;;;;;;5052598;28;20048;-88
2023/08/18 00:50:06;;;;;;;0.00;0.00;;;16.30;99.90;;;;;;5052356;28;20118;-88
2023/08/18 00:52:31;;;;;;;0.45;0.45;;;16.10;99.90;;;;;;5051745;28;20110;-88
2023/08/18 00:54:58;;;;;;;0.00;0.00;;;16.10;99.90;;;;;;5051662;28;20052;-88
2023/08/18 00:57:24;;;;;;;0.08;0.08;;;16.10;99.90;;;;;;5052790;28;20045;-88
2023/08/18 00:59:51;;;;;;;0.10;0.10;;;16.10;99.90;;;;;;5052724;28;20099;-88
2023/08/18 01:02:18;;;;;;;0.03;0.03;;;16.10;99.90;;;;;;5051461;28;20055;-88
2023/08/18 01:04:45;;;;;;;0.65;0.32;;;16.10;99.90;;;;;;5051603;28;20528;-88
2023/08/18 01:07:11;;;;;;;0.10;0.10;;;16.10;99.90;;;;;;5050920;28;20080;-88
2023/08/18 01:09:37;;;;;;;0.00;0.00;;;16.10;99.90;;;;;;5050956;28;20072;-88
2023/08/18 01:12:42;;;;;;;0.10;0.10;;;16.00;99.90;;;;;;5051301;28;20079;-88
2023/08/18 01:15:30;;;;;;;0.00;0.00;;;16.00;99.90;;;;;;5034030;28;20115;-88
2023/08/18 01:18:00;;;;;;;0.20;0.20;;;16.00;99.90;;;;;;5052455;28;20075;-88
2023/08/18 01:20:27;;;;;;;0.00;0.00;;;16.00;99.90;;;;;;5034276;28;20088;-88
2023/08/18 01:22:56;;;;;;;0.00;0.00;;;16.00;99.90;;;;;;5051865;28;20048;-88
2023/08/18 01:25:23;;;;;;;0.00;0.00;;;15.90;1.00;;;;;;5051382;28;20088;-88
2023/08/18 01:27:49;;;;;;;0.25;0.10;;;15.90;1.00;;;;;;5033880;28;20419;-87
2023/08/18 01:30:16;;;;;;;0.00;0.00;;;15.90;1.00;;;;;;5051390;28;20090;-88
2023/08/18 01:33:00;;;;;;;0.00;0.00;;;15.90;1.00;;;;;;5050395;28;20132;-87
2023/08/18 01:35:29;;;;;;;1.83;0.30;;;15.90;1.00;;;;;;5050548;28;20135;-88
2023/08/18 01:37:56;;;;;;;0.08;0.08;;;17.10;1.00;;;;;;5052310;28;20056;-88
2023/08/18 01:40:26;;;;;;;0.20;0.08;;;15.90;1.00;;;;;;5052496;28;20415;-88
2023/08/18 01:42:52;;;;;;;0.00;0.00;;;15.90;1.00;;;;;;5051124;28;20036;-88
2023/08/18 01:45:18;;;;;;;0.00;0.00;;;16.70;8.10;;;;;;5052024;28;20048;-88
2023/08/18 01:47:44;;;;;;;0.00;0.00;;;15.90;16.20;;;;;;5050730;28;20056;-88
2023/08/18 01:50:10;;;;;;;0.00;0.00;;;15.80;26.20;;;;;;5052685;28;20041;-88
2023/08/18 01:52:36;;;;;;;0.03;0.03;;;15.80;99.90;;;;;;5052094;28;20049;-88
2023/08/18 01:55:02;;;;;;;0.00;0.00;;;15.80;99.90;;;;;;5050538;28;20041;-88
2023/08/18 01:57:28;;;;;;;0.13;0.10;;;15.80;99.90;;;;;;5034600;28;20052;-88
2023/08/18 01:59:53;;;;;;;0.00;0.00;;;15.80;99.90;;;;;;5051353;28;20048;-88
2023/08/18 02:02:19;;;;;;;0.10;0.10;;;15.90;99.90;;;;;;5050874;28;20340;-88
2023/08/18 02:04:45;;;;;;;0.00;0.00;;;15.80;99.90;;;;;;5052326;28;20078;-88
2023/08/18 02:07:10;;;;;;;0.43;0.38;;;15.80;99.90;;;;;;5051901;28;20041;-88
2023/08/18 02:09:37;;;;;;;0.90;0.15;;;16.90;99.90;;;;;;5050042;28;20454;-88
2023/08/18 02:12:03;;;;;;;0.00;0.00;;;15.80;99.90;;;;;;5050533;28;20095;-88
2023/08/18 02:14:29;;;;;;;0.00;0.00;;;15.80;99.90;;;;;;5050187;28;20084;-87
2023/08/18 02:16:56;;;;;;;1.35;0.35;;;15.80;99.90;;;;;;5051918;28;20057;-88
2023/08/18 02:19:22;;;;;;;0.00;0.00;;;15.80;1.00;;;;;;5034189;28;20040;-88
2023/08/18 02:21:48;;;;;;;0.00;0.00;;;15.80;1.00;;;;;;5051653;28;20044;-88
2023/08/18 02:24:14;;;;;;;0.65;0.47;;;15.80;1.00;;;;;;5051924;28;20472;-88
2023/08/18 02:26:40;;;;;;;0.38;0.20;;;15.80;1.00;;;;;;5052473;28;20056;-88
2023/08/18 02:29:06;;;;;;;1.00;0.52;;;15.80;1.00;;;;;;5052085;28;20049;-88
2023/08/18 02:31:31;;;;;;;0.00;0.00;;;15.80;1.00;;;;;;5052103;28;20057;-88
2023/08/18 02:33:57;;;;;;;1.02;0.22;;;15.80;1.00;;;;;;5050404;28;20082;-88
2023/08/18 02:36:23;;;;;;;1.65;0.35;;;15.80;1.00;;;;;;5052111;28;20380;-89
2023/08/18 02:38:48;;;;;;;0.05;0.00;;;15.80;1.00;;;;;;5052589;28;20435;-89
2023/08/18 02:41:14;;;;;;;0.65;0.32;;;15.80;10.30;;;;;;5053119;28;20061;-88
2023/08/18 02:43:41;;;;;;;0.00;0.00;;;15.80;30.00;;;;;;5058661;28;20079;-88
2023/08/18 02:46:07;;;;;;;0.00;0.00;;;15.80;65.20;;;;;;5058893;28;20035;-88
2023/08/18 02:48:32;;;;;;;0.10;0.10;;;16.50;94.40;;;;;;5058935;28;20124;-88
2023/08/18 02:51:03;;;;;;;0.00;0.00;;;15.80;99.90;;;;;;5056575;28;20049;-88
2023/08/18 02:53:29;;;;;;;0.43;0.38;;;15.80;98.80;;;;;;5057788;28;20090;-89
2023/08/18 02:55:55;;;;;;;0.00;0.00;;;15.80;99.90;;;;;;5058521;28;20044;-89
2023/08/18 02:58:22;;;;;;;0.00;0.00;;;15.80;99.90;;;;;;5058679;28;20990;-88
2023/08/18 03:00:47;;;;;;;0.00;0.00;;;15.80;99.90;;;;;;5058346;28;20096;-88
2023/08/18 03:03:13;;;;;;;0.15;0.15;;;15.80;99.90;;;;;;5040151;28;20056;-88
2023/08/18 03:05:39;;;;;;;1.27;0.38;;;15.80;99.90;;;;;;5057325;28;20048;-88
2023/08/18 03:08:05;;;;;;;0.40;0.35;;;15.80;99.90;;;;;;5057371;28;20104;-88
2023/08/18 03:10:30;;;;;;;0.00;0.00;;;15.80;99.90;;;;;;5039790;28;20057;-88
2023/08/18 03:12:56;;;;;;;0.38;0.35;;;15.80;99.90;;;;;;5056940;28;20052;-88
2023/08/18 03:15:22;;;;;;;0.00;0.00;;;15.80;99.90;;;;;;5058417;28;20095;-88
2023/08/18 03:17:49;;;;;;;0.00;0.00;;;15.80;99.90;;;;;;5058365;28;20076;-88
2023/08/18 03:20:14;;;;;;;0.10;0.10;;;17.30;99.90;;;;;;5058122;28;20080;-88
2023/08/18 03:22:40;;;;;;;1.08;0.47;;;15.80;99.90;;;;;;5058196;28;20905;-88
2023/08/18 03:25:06;;;;;;;0.10;0.10;;;16.50;99.90;;;;;;5056631;28;20059;-88
2023/08/18 03:27:32;;;;;;;0.55;0.52;;;15.80;99.90;;;;;;5056830;28;20149;-88
2023/08/18 03:29:58;;;;;;;0.10;0.10;;;15.80;99.90;;;;;;5055971;28;20049;-88
2023/08/18 03:32:25;;;;;;;0.30;0.30;;;15.80;99.90;;;;;;5056167;28;20041;-87
2023/08/18 03:34:55;;;;;;;0.30;0.25;;;15.80;99.90;;;;;;5059040;28;20071;-88
2023/08/18 03:37:21;;;;;;;0.22;0.22;;;15.80;99.90;;;;;;5057895;28;20057;-88
2023/08/18 03:39:47;;;;;;;1.00;0.63;;;15.80;99.90;;;;;;5058939;28;20936;-88
2023/08/18 03:42:12;;;;;;;0.10;0.05;;;15.80;99.90;;;;;;5057641;28;20040;-88
2023/08/18 03:44:38;;;;;;;0.00;0.00;;;15.90;99.90;;;;;;5062615;28;20037;-88
2023/08/18 03:47:04;;;;;;;0.30;0.30;;;15.80;99.90;;;;;;5075070;28;20037;-88
2023/08/18 03:49:29;;;;;;;0.17;0.13;;;15.90;99.90;;;;;;5078577;28;20052;-88
2023/08/18 03:51:55;;;;;;;0.50;0.30;;;15.80;99.90;;;;;;5078886;28;20049;-87
2023/08/18 03:54:21;;;;;;;0.28;0.20;;;15.80;99.90;;;;;;5075768;28;20075;-88
2023/08/18 03:56:46;;;;;;;0.00;0.00;;;15.90;99.90;;;;;;5075606;28;20044;-88
2023/08/18 03:59:12;;;;;;;0.63;0.47;;;15.90;99.90;;;;;;5074284;28;20056;-88
2023/08/18 04:01:38;;;;;;;0.25;0.20;;;15.90;99.90;;;;;;5073747;28;20049;-89
2023/08/18 04:04:04;;;;;;;0.03;0.03;;;15.90;99.90;;;;;;5061418;28;20136;-88
2023/08/18 04:06:30;;;;;;;0.52;0.32;;;15.90;99.90;;;;;;5055082;28;20511;-87
2023/08/18 04:09:15;;;;;;;0.40;0.40;;;15.90;99.90;;;;;;5057241;28;20049;-88
2023/08/18 04:11:41;;;;;;;0.35;0.25;;;17.10;99.90;;;;;;5054323;28;20423;-88
2023/08/18 04:14:07;;;;;;;0.47;0.47;;;15.90;99.90;;;;;;5054170;28;20680;-88
2023/08/18 04:16:32;;;;;;;0.15;0.13;;;16.80;99.90;;;;;;5055381;28;20132;-88
2023/08/18 04:18:58;;;;;;;0.70;0.45;;;15.90;99.90;;;;;;5054096;28;20127;-89
2023/08/18 04:21:25;;;;;;;0.17;0.13;;;15.90;99.90;;;;;;5054887;28;20049;-88
2023/08/18 04:23:51;;;;;;;1.25;0.52;;;15.90;99.90;;;;;;5052880;28;20065;-88
2023/08/18 04:26:16;;;;;;;0.10;0.10;;;15.90;99.90;;;;;;5053032;28;20105;-88
2023/08/18 04:28:42;;;;;;;0.05;0.05;;;15.90;99.90;;;;;;5052654;28;20132;-88
2023/08/18 04:31:08;;;;;;;0.60;0.43;;;16.10;99.90;;;;;;5052611;28;20052;-88
2023/08/18 04:33:33;;;;;;;0.32;0.30;;;15.90;99.90;;;;;;5052250;28;20045;-88
2023/08/18 04:36:00;;;;;;;0.00;0.00;;;15.90;99.90;;;;;;5050905;28;20044;-88
2023/08/18 04:38:26;;;;;;;0.00;0.00;;;16.00;99.90;;;;;;5051991;28;20057;-88
2023/08/18 04:41:02;;;;;;;0.50;0.40;;;16.00;99.90;;;;;;5053442;28;20049;-88
2023/08/18 04:43:29;;;;;;;0.65;0.55;;;16.00;99.90;;;;;;5054635;28;20099;-88
2023/08/18 04:45:54;;;;;;;0.45;0.30;;;16.00;99.90;;;;;;5035771;28;20040;-88
2023/08/18 04:48:21;;;;;;;0.68;0.50;;;16.00;99.90;;;;;;5053640;28;20180;-88
2023/08/18 04:50:48;;;;;;;4.38;2.05;;;16.00;99.90;;;;;;5052766;28;20045;-88
2023/08/18 04:53:14;;;;;;;1.75;0.17;;;16.00;99.90;;;;;;5051032;28;20055;-88
2023/08/18 04:55:41;;;;;;;0.65;0.20;;;16.00;99.90;;;;;;5052902;28;20090;-88
2023/08/18 04:58:12;;;;;;;0.55;0.52;;;16.00;99.90;;;;;;5052217;28;20065;-88
2023/08/18 05:00:39;;;;;;;0.00;0.00;;;16.00;99.90;;;;;;5051655;28;20087;-88
2023/08/18 05:03:05;;;;;;;0.20;0.15;;;16.10;99.90;;;;;;5050487;28;20059;-88
2023/08/18 05:05:38;;;;;;;1.35;1.25;;;16.10;99.90;;;;;;5049790;28;20059;-87
2023/08/18 05:08:04;;;;;;;0.10;0.10;;;16.00;1.00;;;;;;5033485;28;20037;-88
2023/08/18 05:10:30;;;;;;;0.65;0.60;;;16.10;1.00;;;;;;5051641;28;20056;-88
2023/08/18 05:12:55;;;;;;;0.10;0.10;;;16.10;1.00;;;;;;5052576;28;20395;-88
2023/08/18 05:15:22;;;;;;;0.28;0.28;;;16.10;1.00;;;;;;5051591;28;20092;-88
2023/08/18 05:17:49;;;;;;;0.10;0.10;;;16.90;1.00;;;;;;5051309;28;20133;-88
2023/08/18 05:20:15;;;;;;;0.20;0.20;;;16.20;1.00;;;;;;5027185;28;20527;-88
2023/08/18 05:22:43;;;;;;;0.88;0.50;;;16.20;1.00;;;;;;5043755;28;20511;-88
2023/08/18 05:25:09;;;;;;;0.43;0.40;;;16.20;1.00;;;;;;5044614;28;20080;-88
2023/08/18 05:27:35;;;;;;;1.33;0.85;;;16.40;1.00;;;;;;5026052;28;20083;-88
2023/08/18 05:30:00;;;;;;;0.10;0.10;;;16.20;1.00;;;;;;5026410;28;20040;-88
2023/08/18 05:32:26;;;;;;;0.88;0.57;;;17.50;2.10;;;;;;5025455;28;20578;-87
2023/08/18 05:34:55;;;;;;;0.90;0.57;;;16.40;1.00;;;;;;5045687;28;20037;-88
2023/08/18 05:37:22;;;;;;;0.77;0.55;;;16.30;1.00;;;;;;5045891;28;20106;-88
2023/08/18 05:39:47;;;;;;;0.10;0.10;;;16.30;1.00;;;;;;5045257;28;20083;-86
2023/08/18 05:42:13;;;;;;;0.50;0.40;;;16.40;1.00;;;;;;5043999;28;20084;-88
2023/08/18 05:44:41;;;;;;;0.35;0.35;;;16.40;1.00;;;;;;5046153;28;20106;-88
2023/08/18 05:47:06;;;;;;;0.68;0.40;;;16.50;1.00;;;;;;5043678;28;20047;-88
2023/08/18 05:49:32;;;;;;;0.13;0.10;;;16.50;1.00;;;;;;5043002;28;20049;-88
2023/08/18 05:51:58;;;;;;;0.47;0.32;;;16.60;1.00;;;;;;5045148;28;20048;-88
2023/08/18 05:54:23;;;;;;;0.82;0.52;;;16.60;99.90;;;;;;5044762;28;20041;-88
2023/08/18 05:56:50;;;;;;;0.00;0.00;;;16.70;99.90;;;;;;5044245;28;20520;-88
2023/08/18 05:59:15;;;;;;;0.43;0.25;;;17.20;99.90;;;;;;5045274;28;20052;-88
2023/08/18 06:01:41;;;;;;;0.47;0.43;;;16.90;99.90;;;;;;5043281;28;20056;-88
2023/08/18 06:04:07;;;;;;;0.52;0.50;;;17.00;99.90;;;;;;5044732;28;20055;-88
2023/08/18 06:06:34;;;;;;;0.75;0.55;;;17.10;99.90;;;;;;5043573;28;20053;-88
2023/08/18 06:09:01;;;;;;;0.03;0.03;;;17.10;43.90;;;;;;5044001;28;20052;-88
2023/08/18 06:11:27;;;;;;;0.57;0.55;;;17.20;1.00;;;;;;5043160;28;20385;-88
2023/08/18 06:13:52;;;;;;;0.20;0.20;;;17.60;1.00;;;;;;5042760;28;20102;-88
2023/08/18 06:16:18;;;;;;;0.45;0.35;;;17.20;1.00;;;;;;5044132;28;20405;-88
2023/08/18 06:18:44;;;;;;;0.60;0.55;;;17.30;1.00;;;;;;5042663;28;20083;-87
2023/08/18 06:21:09;;;;;;;0.98;0.63;;;17.30;99.90;;;;;;5044518;28;20052;-87
2023/08/18 06:23:36;;;;;;;0.60;0.52;;;17.40;99.90;;;;;;5046979;28;20053;-87
2023/08/18 06:26:05;;;;;;;0.40;0.30;;;18.20;99.90;;;;;;5051961;28;20552;-87
2023/08/18 06:28:39;;;;;;;0.65;0.35;;;17.40;99.90;;;;;;5027261;28;20161;-87
2023/08/18 06:31:07;;;;;;;0.00;0.00;;;17.50;99.90;;;;;;5041130;28;20503;-87
2023/08/18 06:33:36;;;;;;;0.20;0.20;;;17.80;97.70;;;;;;5044106;28;20069;-87
2023/08/18 06:36:11;;;;;;;0.20;0.20;;;17.80;99.90;;;;;;5046597;28;20069;-88
2023/08/18 06:38:39;;;;;;;0.30;0.22;;;17.70;5.10;;;;;;5046673;28;20131;-87
2023/08/18 06:41:06;;;;;;;0.00;0.00;;;17.70;1.00;;;;;;5043494;28;20191;-87
2023/08/18 06:43:31;;;;;;;0.45;0.45;;;18.10;99.90;;;;;;5042707;28;20053;-87
2023/08/18 06:45:57;;;;;;;0.75;0.40;;;17.80;1.00;;;;;;5042848;28;20054;-87
2023/08/18 06:48:23;;;;;;;2.72;0.93;;;17.90;99.90;;;;;;5044288;28;20411;-87
2023/08/18 06:50:48;;;;;;;0.38;0.38;;;17.90;99.90;;;;;;5043794;28;20041;-87
2023/08/18 06:53:14;;;;;;;0.43;0.10;;;17.90;99.90;;;;;;5044106;28;20077;-87
2023/08/18 06:55:40;;;;;;;0.43;0.40;;;18.00;99.90;;;;;;5044334;28;20045;-87
2023/08/18 06:58:05;;;;;;;0.22;0.22;;;18.10;99.90;;;;;;5044889;28;20496;-87
2023/08/18 07:00:31;;;;;;;0.77;0.70;;;18.30;99.90;;;;;;5042069;28;20171;-87
2023/08/18 07:02:57;;;;;;;3.33;0.75;;;18.30;99.90;;;;;;5045639;28;20419;-87
2023/08/18 07:05:24;;;;;;;0.85;0.55;;;18.30;26.20;;;;;;5047969;28;20053;-87
2023/08/18 07:07:50;;;;;;;0.17;0.15;;;18.20;1.00;;;;;;5048829;28;20045;-86
2023/08/18 07:10:16;;;;;;;0.20;0.20;;;18.00;4.30;;;;;;5047092;28;20509;-86
2023/08/18 07:12:41;;;;;;;0.73;0.55;;;18.10;99.90;;;;;;5046536;28;20138;-87
2023/08/18 07:15:07;;;;;;;6.03;1.65;;;18.10;99.90;;;;;;5043286;28;20123;-87
2023/08/18 07:17:33;;;;;;;0.22;0.22;;;18.00;80.10;;;;;;5043440;28;20053;-87
2023/08/18 07:19:58;;;;;;;0.45;0.25;;;18.00;99.90;;;;;;5045364;28;20087;-88
2023/08/18 07:22:24;;;;;;;0.85;0.65;;;18.00;99.90;;;;;;5043869;28;20084;-87
2023/08/18 07:24:50;;;;;;;8.90;0.40;;;18.10;99.90;;;;;;5044298;28;20044;-87
2023/08/18 07:27:16;;;;;;;1.02;0.82;;;18.00;99.90;;;;;;5044364;28;20041;-87
2023/08/18 07:29:41;;;;;;;0.90;0.77;;;18.10;99.90;;;;;;5046897;28;20083;-88
2023/08/18 07:32:07;;;;;;;3.33;1.10;;;18.10;99.90;;;;;;5047806;28;20079;-87
2023/08/18 07:34:32;;;;;;;1.48;1.38;;;18.30;99.90;;;;;;5047026;28;20094;-87
2023/08/18 07:36:58;;;;;;;0.65;0.65;;;18.20;99.90;;;;;;5047451;28;20049;-87
2023/08/18 07:39:24;;;;;;;0.38;0.32;;;18.10;99.90;;;;;;5047427;28;20056;-87
2023/08/18 07:41:50;;;;;;;0.85;0.85;;;18.10;99.90;;;;;;5045904;28;20497;-87
2023/08/18 07:44:15;;;;;;;3.40;0.77;;;18.40;99.90;;;;;;5047632;28;20045;-87
2023/08/18 07:46:41;;;;;;;5.95;1.92;;;18.60;99.90;;;;;;5047208;28;20827;-87
2023/08/18 07:49:07;;;;;;;2.03;1.08;;;18.80;1.00;;;;;;5046735;28;20045;-87
2023/08/18 07:51:33;;;;;;;2.28;0.90;;;18.80;99.90;;;;;;5046651;28;20411;-87
2023/08/18 07:53:59;;;;;;;5.70;2.65;;;19.00;25.00;;;;;;5046224;28;20121;-87
2023/08/18 07:56:24;;;;;;;5.18;1.55;;;18.70;1.00;;;;;;5046624;28;20345;-87
2023/08/18 07:58:50;;;;;;;1.60;1.10;;;18.70;68.60;;;;;;5044098;28;20049;-87
2023/08/18 08:01:16;;;;;;;0.32;0.17;;;18.80;2.70;;;;;;5044276;28;20475;-87
2023/08/18 08:03:41;;;;;;;1.30;1.05;;;18.60;1.00;;;;;;5046015;28;20084;-87
2023/08/18 08:06:07;;;;;;;4.20;1.23;;;18.80;99.90;;;;;;5045813;28;20434;-87
2023/08/18 08:08:33;;;;;;;0.70;0.60;;;19.00;99.90;;;;;;5045463;28;20458;-87
2023/08/18 08:10:59;;;;;;;7.68;1.15;;;19.10;99.90;;;;;;5044723;28;20048;-87
2023/08/18 08:13:25;;;;;;;0.47;0.45;;;19.10;99.90;;;;;;5045370;28;20416;-87
2023/08/18 08:15:51;;;;;;;0.20;0.20;;;19.10;99.90;;;;;;5028104;28;20390;-87
2023/08/18 08:18:18;;;;;;;0.82;0.38;;;19.00;99.90;;;;;;5041526;28;20059;-87
2023/08/18 08:20:44;;;;;;;0.22;0.20;;;19.10;99.90;;;;;;5046476;28;20063;-87
2023/08/18 08:23:10;;;;;;;0.65;0.65;;;19.10;99.90;;;;;;5050617;28;20083;-87
2023/08/18 08:25:38;;;;;;;3.22;1.23;;;19.20;99.90;;;;;;5034520;28;20052;-87
2023/08/18 08:28:04;;;;;;;1.50;1.40;;;19.40;99.90;;;;;;5031046;28;20064;-87
2023/08/18 08:30:30;;;;;;;3.20;0.60;;;19.60;1.00;;;;;;5043557;28;20056;-87
2023/08/18 08:32:56;;;;;;;0.60;0.50;;;19.80;1.00;;;;;;5050615;28;20414;-87
2023/08/18 08:35:22;;;;;;;1.52;0.85;;;19.80;99.90;;;;;;5030613;28;20049;-87
2023/08/18 08:37:48;;;;;;;1.60;1.15;;;19.70;99.90;;;;;;5049125;28;20057;-87
2023/08/18 08:40:19;;;;;;;0.28;0.28;;;19.70;1.00;;;;;;5046549;28;20056;-87
2023/08/18 08:42:47;;;;;;;0.20;0.20;;;19.70;1.00;;;;;;5048229;28;20487;-87
2023/08/18 08:45:13;;;;;;;0.65;0.65;;;19.70;99.90;;;;;;5048998;28;20128;-87
2023/08/18 08:47:40;;;;;;;0.22;0.22;;;19.70;1.00;;;;;;5047508;28;20131;-87
2023/08/18 08:50:06;;;;;;;0.65;0.47;;;19.70;99.90;;;;;;5049601;28;20487;-89
2023/08/18 08:52:38;;;;;;;0.40;0.35;;;19.60;99.90;;;;;;5050850;28;20389;-87
2023/08/18 08:55:05;;;;;;;0.20;0.20;;;19.70;99.90;;;;;;5049012;28;20037;-87
2023/08/18 08:57:31;;;;;;;0.68;0.68;;;19.90;1.00;;;;;;5050243;28;20044;-87
2023/08/18 08:59:56;;;;;;;1.75;1.27;;;19.70;1.00;;;;;;5048121;28;20095;-87
2023/08/18 09:02:22;;;;;;;0.68;0.65;;;19.90;99.90;;;;;;5049474;28;20052;-87
2023/08/18 09:04:48;;;;;;;1.20;0.98;;;20.10;99.90;;;;;;5049645;28;20144;-87
2023/08/18 09:07:14;;;;;;;0.45;0.45;;;20.40;1.20;;;;;;5048413;28;20522;-87
2023/08/18 09:09:41;;;;;;;0.38;0.32;;;20.40;99.90;;;;;;5049990;28;20498;-87
2023/08/18 09:12:08;;;;;;;2.55;1.35;;;20.70;99.90;;;;;;5047215;28;20059;-87
2023/08/18 09:14:35;;;;;;;0.63;0.57;;;20.80;99.90;;;;;;5047511;28;20044;-88
2023/08/18 09:17:02;;;;;;;0.82;0.63;;;21.30;99.90;;;;;;5048321;28;20416;-87
2023/08/18 09:19:28;;;;;;;0.50;0.45;;;21.70;1.00;;;;;;5029519;28;20064;-87
2023/08/18 09:21:57;;;;;;;0.75;0.68;;;21.50;99.90;;;;;;5029293;28;20037;-87
2023/08/18 09:24:24;;;;;;;1.23;0.80;;;21.50;99.90;;;;;;5047116;28;20045;-87
2023/08/18 09:26:49;;;;;;;1.08;0.70;;;22.10;99.90;;;;;;5046601;28;20064;-87
2023/08/18 09:29:15;;;;;;;7.05;1.98;;;22.10;1.00;;;;;;5048225;28;20052;-88
2023/08/18 09:31:41;;;;;;;1.85;0.77;;;22.30;99.90;;;;;;5030016;28;20049;-88
2023/08/18 09:34:07;;;;;;;1.27;0.88;;;22.10;99.90;;;;;;5030124;28;20411;-87
2023/08/18 09:36:32;;;;;;;0.68;0.68;;;22.30;1.00;;;;;;5048497;28;20113;-87
2023/08/18 09:39:03;;;;;;;1.33;0.98;;;22.70;99.90;;;;;;5049314;28;20487;-88
2023/08/18 09:41:29;;;;;;;2.95;1.65;;;22.80;99.90;;;;;;5031463;28;20045;-88
2023/08/18 09:43:54;;;;;;;0.47;0.43;;;22.90;99.90;;;;;;5047262;28;20821;-87
2023/08/18 09:46:25;;;;;;;1.00;0.77;;;22.50;99.90;;;;;;5047165;28;20415;-87
2023/08/18 09:48:54;;;;;;;0.30;0.30;;;22.00;99.90;;;;;;5030827;28;20621;-88
2023/08/18 09:51:22;;;;;;;0.57;0.57;;;22.10;1.00;;;;;;5046989;28;20469;-88
2023/08/18 09:54:03;;;;;;;0.65;0.40;;;22.20;1.00;;;;;;5030255;28;20147;-88
2023/08/18 09:56:31;;;;;;;0.52;0.50;;;22.40;1.00;;;;;;5047848;28;20049;-88
2023/08/18 09:59:12;;;;;;;0.68;0.55;;;22.60;99.90;;;;;;5029714;28;20048;-88
2023/08/18 10:01:39;;;;;;;0.40;0.30;;;23.00;99.90;;;;;;5046527;28;20067;-88
2023/08/18 10:04:07;;;;;;;0.43;0.43;;;23.20;99.90;;;;;;5030059;28;20056;-88
2023/08/18 10:06:36;;;;;;;0.63;0.63;;;23.60;99.90;;;;;;5031738;28;20051;-88
2023/08/18 10:09:02;;;;;;;0.13;0.13;;;23.60;99.90;;;;;;5048927;28;20100;-88
2023/08/18 10:11:28;;;;;;;7.68;1.15;;;23.50;99.90;;;;;;5046622;28;20151;-87
2023/08/18 10:13:54;;;;;;;2.55;0.52;;;23.70;99.90;;;;;;5046929;28;20047;-88
2023/08/18 10:16:20;;;;;;;0.20;0.20;;;23.60;99.90;;;;;;5048077;28;20138;-87
2023/08/18 10:18:55;;;;;;;0.68;0.38;;;23.40;99.90;;;;;;5047027;28;20091;-88
2023/08/18 10:21:22;;;;;;;0.55;0.55;;;23.00;99.90;;;;;;5048491;28;20112;-88
2023/08/18 10:23:48;;;;;;;1.75;0.90;;;23.00;99.90;;;;;;5048012;28;20358;-88
2023/08/18 10:26:14;;;;;;;0.52;0.45;;;23.00;99.90;;;;;;5045823;28;20568;-88
2023/08/18 10:28:40;;;;;;;0.73;0.52;;;22.90;99.90;;;;;;5046148;28;20061;-88
2023/08/18 10:31:08;;;;;;;1.55;0.93;;;22.80;99.90;;;;;;5047880;28;20041;-88
2023/08/18 10:33:43;;;;;;;1.75;1.40;;;22.60;99.90;;;;;;5047595;28;20388;-88
2023/08/18 10:36:10;;;;;;;0.65;0.55;;;22.20;1.00;;;;;;5046363;28;20064;-88
2023/08/18 10:38:39;;;;;;;2.78;0.95;;;22.70;1.00;;;;;;5047147;28;20518;-88
2023/08/18 10:41:04;;;;;;;1.13;0.70;;;22.30;1.00;;;;;;5046864;28;20068;-88
2023/08/18 10:43:47;;;;;;;0.20;0.20;;;22.40;1.00;;;;;;5026458;28;20114;-88
2023/08/18 10:46:13;;;;;;;0.55;0.55;;;22.60;1.00;;;;;;5011368;28;20057;-87
2023/08/18 10:48:39;;;;;;;0.17;0.17;;;22.60;1.00;;;;;;5046100;28;20103;-88
2023/08/18 10:51:05;;;;;;;8.00;1.67;;;22.60;1.00;;;;;;5046170;28;20049;-88
2023/08/18 10:53:36;;;;;;;1.35;0.45;;;22.50;1.00;;;;;;5045664;28;20067;-88
2023/08/18 10:56:03;;;;;;;0.98;0.57;;;22.60;1.00;;;;;;5047262;28;20057;-87
2023/08/18 10:58:29;;;;;;;0.75;0.68;;;22.90;1.00;;;;;;5047550;28;20057;-87
2023/08/18 11:00:55;;;;;;;1.55;0.75;;;22.80;1.00;;;;;;5047213;28;20477;-87
2023/08/18 11:03:21;;;;;;;0.73;0.55;;;23.00;99.90;;;;;;5050294;28;20152;-88
2023/08/18 11:05:46;;;;;;;1.10;0.73;;;23.30;99.90;;;;;;5051990;28;20056;-88
2023/08/18 11:08:13;;;;;;;1.20;1.10;;;23.10;99.90;;;;;;5049574;28;20049;-88
2023/08/18 11:10:42;;;;;;;1.02;0.73;;;23.70;99.90;;;;;;5051222;28;20418;-88
2023/08/18 11:13:20;;;;;;;0.30;0.30;;;24.20;99.90;;;;;;5049766;28;20049;-88
2023/08/18 11:15:45;;;;;;;0.10;0.10;;;24.40;99.90;;;;;;5050431;28;20590;-88
2023/08/18 11:18:11;;;;;;;0.75;0.55;;;24.40;99.90;;;;;;5049325;28;20120;-88
2023/08/18 11:20:36;;;;;;;0.85;0.65;;;24.60;99.90;;;;;;5049746;28;20411;-88
2023/08/18 11:23:04;;;;;;;1.15;0.63;;;24.90;99.90;;;;;;5051436;28;20036;-88
2023/08/18 11:25:30;;;;;;;0.35;0.22;;;25.30;99.90;;;;;;5051195;28;20053;-88
2023/08/18 11:27:56;;;;;;;0.30;0.20;;;24.50;99.90;;;;;;5049299;28;20077;-88
2023/08/18 11:30:22;;;;;;;0.00;0.00;;;24.80;99.90;;;;;;5051160;28;20176;-88
2023/08/18 11:32:47;;;;;;;0.63;0.47;;;25.20;99.90;;;;;;5049227;28;20049;-88
2023/08/18 11:35:14;;;;;;;1.27;1.05;;;26.00;99.90;;;;;;5049359;28;20535;-88
2023/08/18 11:37:45;;;;;;;0.35;0.32;;;26.80;99.90;;;;;;5050600;28;20503;-88
2023/08/18 11:40:17;;;;;;;0.70;0.60;;;26.90;32.50;;;;;;5049389;28;20522;-88
2023/08/18 11:42:50;;;;;;;2.10;0.75;;;26.80;17.30;;;;;;5049253;28;20124;-88
2023/08/18 11:45:23;;;;;;;1.00;0.88;;;26.00;7.70;;;;;;5050755;28;20048;-87
2023/08/18 11:47:58;;;;;;;1.35;0.75;;;25.20;2.20;;;;;;5032967;28;20102;-88
2023/08/18 11:50:38;;;;;;;0.52;0.32;;;24.90;42.60;;;;;;5049160;28;20060;-88
2023/08/18 11:53:05;;;;;;;0.77;0.55;;;24.60;92.20;;;;;;5051091;28;20044;-88
2023/08/18 11:55:36;;;;;;;1.88;0.73;;;24.10;99.90;;;;;;5032868;28;20053;-88
2023/08/18 11:58:13;;;;;;;0.95;0.77;;;24.20;99.90;;;;;;5033395;28;20427;-88
2023/08/18 12:00:40;;;;;;;1.27;0.90;;;24.00;99.90;;;;;;5049363;28;20061;-88
2023/08/18 12:03:18;;;;;;;1.05;0.93;;;24.20;99.90;;;;;;5050860;28;20094;-88
2023/08/18 12:05:43;;;;;;;2.83;0.70;;;24.30;99.90;;;;;;5051155;28;20080;-89
2023/08/18 12:08:10;;;;;;;0.80;0.65;;;23.70;99.90;;;;;;5049532;28;20091;-86
2023/08/18 12:10:36;;;;;;;0.22;0.22;;;24.30;99.90;;;;;;5050816;28;20045;-88
2023/08/18 12:13:02;;;;;;;0.50;0.50;;;24.50;99.90;;;;;;5048340;28;20075;-88
2023/08/18 12:15:27;;;;;;;0.68;0.55;;;25.00;99.90;;;;;;5048550;28;20045;-88
2023/08/18 12:17:54;;;;;;;0.55;0.52;;;25.30;99.90;;;;;;5050057;28;20120;-88
2023/08/18 12:20:20;;;;;;;2.15;1.25;;;25.60;99.90;;;;;;5049997;28;20057;-88
2023/08/18 12:22:48;;;;;;;1.80;1.25;;;25.20;99.90;;;;;;5050546;28;20079;-88
2023/08/18 12:25:14;;;;;;;1.55;1.02;;;25.40;99.90;;;;;;5049690;28;20133;-88
2023/08/18 12:27:39;;;;;;;8.95;1.98;;;25.10;99.90;;;;;;5049049;28;20048;-88
2023/08/18 12:30:07;;;;;;;2.53;1.08;;;25.40;99.90;;;;;;5050835;28;20369;-88
2023/08/18 12:32:33;;;;;;;1.25;1.15;;;26.50;99.90;;;;;;5050618;28;20053;-88
2023/08/18 12:34:59;;;;;;;3.03;1.25;;;27.80;98.10;;;;;;5050165;28;20377;-89
2023/08/18 12:37:25;;;;;;;1.15;1.00;;;28.50;38.10;;;;;;5050567;28;20044;-86
2023/08/18 12:39:50;;;;;;;0.68;0.47;;;29.50;90.30;;;;;;5050585;28;20052;-86
2023/08/18 12:42:16;;;;;;;3.13;1.58;;;30.20;5.90;;;;;;5049698;28;20380;-86
2023/08/18 12:44:42;;;;;;;0.88;0.75;;;30.50;1.00;;;;;;5050930;28;20499;-86
2023/08/18 12:47:08;;;;;;;0.45;0.40;;;30.50;1.00;;;;;;5050270;28;20399;-86
2023/08/18 12:49:33;;;;;;;1.25;1.13;;;30.90;1.00;;;;;;5050084;28;20060;-86